Time;durP1;ratioP1;P1;durP2;ratioP2;P2;SDS_P1;SDS_P2;PMS_P1;PMS_P2;Temp;Humidity;BMP_temperature;BMP_pressure;BME280_temperature;BME280_humidity;BME280_pressure;Samples;Min_cycle;Max_cycle;Signal;HPM_P1;HPM_P2
2022/01/15 00:00:17;;;;;;;0.73;0.20;;;;;;;20.27;28.26;96016.38;5132273;27;20011;-65
2022/01/15 00:02:43;;;;;;;2.30;0.47;;;;;;;20.25;28.20;96007.78;5132160;27;20027;-64
2022/01/15 00:05:09;;;;;;;0.45;0.20;;;;;;;20.24;28.26;96027.66;5114331;28;20023;-64
2022/01/15 00:07:35;;;;;;;0.85;0.47;;;;;;;20.21;28.31;96031.69;5133849;27;20050;-64
2022/01/15 00:10:00;;;;;;;0.82;0.30;;;;;;;20.21;28.21;96023.63;5134695;27;20015;-66
2022/01/15 00:12:26;;;;;;;0.85;0.40;;;;;;;20.20;28.41;96032.75;5132021;27;20026;-64
2022/01/15 00:14:53;;;;;;;0.77;0.45;;;;;;;20.20;28.35;96034.66;5131939;28;20007;-64
2022/01/15 00:17:31;;;;;;;0.40;0.15;;;;;;;20.18;28.64;96034.09;5140096;27;20011;-63
2022/01/15 00:19:57;;;;;;;0.70;0.20;;;;;;;20.20;28.73;96040.00;5140112;27;20029;-64
2022/01/15 00:22:22;;;;;;;0.40;0.20;;;;;;;20.19;28.49;96035.72;5131849;27;20023;-63
2022/01/15 00:24:48;;;;;;;0.43;0.20;;;;;;;20.18;28.56;96042.94;5132663;27;20252;-65
2022/01/15 00:27:15;;;;;;;0.20;0.20;;;;;;;20.18;28.52;96039.47;5132892;27;20027;-64
2022/01/15 00:29:41;;;;;;;1.08;0.40;;;;;;;20.18;28.28;96045.63;5131545;27;20088;-64
2022/01/15 00:32:07;;;;;;;0.77;0.40;;;;;;;20.19;28.25;96046.47;5131574;27;20031;-64
2022/01/15 00:34:33;;;;;;;0.35;0.20;;;;;;;20.17;28.42;96040.53;5131621;27;20035;-64
2022/01/15 00:36:59;;;;;;;0.20;0.20;;;;;;;20.18;28.41;96042.16;5134151;27;20031;-63
2022/01/15 00:39:25;;;;;;;1.00;0.32;;;;;;;20.18;28.41;96034.91;5131542;27;20019;-64
2022/01/15 00:41:51;;;;;;;0.57;0.30;;;;;;;20.19;28.22;96043.78;5135229;27;20034;-65
2022/01/15 00:44:17;;;;;;;0.55;0.20;;;;;;;20.20;28.31;96053.44;5141365;27;20052;-64
2022/01/15 00:46:43;;;;;;;0.70;0.40;;;;;;;20.18;28.67;96056.38;5150594;27;20046;-64
2022/01/15 00:49:09;;;;;;;0.40;0.20;;;;;;;20.17;28.43;96053.97;5137510;27;20023;-65
2022/01/15 00:51:35;;;;;;;0.10;0.10;;;;;;;20.18;28.36;96064.41;5131246;27;20012;-65
2022/01/15 00:54:01;;;;;;;0.40;0.20;;;;;;;20.19;28.23;96067.94;5131200;27;20136;-64
2022/01/15 00:56:26;;;;;;;1.58;0.20;;;;;;;20.18;28.48;96072.47;5131255;27;20025;-64
2022/01/15 00:58:52;;;;;;;0.43;0.13;;;;;;;20.21;28.62;96073.84;5131069;27;20018;-64
2022/01/15 01:01:20;;;;;;;0.17;0.10;;;;;;;20.20;28.30;96074.91;5133557;27;20139;-64
2022/01/15 01:03:47;;;;;;;2.03;0.50;;;;;;;20.20;28.45;96080.28;5130508;28;20060;-64
2022/01/15 01:06:13;;;;;;;1.77;0.30;;;;;;;20.21;28.67;96076.53;5131249;27;20129;-64
2022/01/15 01:08:38;;;;;;;0.70;0.20;;;;;;;20.22;28.54;96072.75;5130813;27;20015;-64
2022/01/15 01:11:11;;;;;;;2.03;0.38;;;;;;;20.23;28.46;96082.41;5142595;27;20023;-64
2022/01/15 01:20:02;;;;;;;0.70;0.22;;;;;;;20.22;28.55;96080.81;5135456;27;20025;-64
2022/01/15 01:24:16;;;;;;;1.58;0.30;;;;;;;20.26;28.81;96081.88;5150203;27;20015;-64
2022/01/15 01:29:21;;;;;;;1.75;0.40;;;;;;;20.26;28.70;96074.63;5141658;27;20043;-65
2022/01/15 01:34:46;;;;;;;1.10;0.40;;;;;;;20.26;28.79;96089.94;5094326;27;20023;-64
2022/01/15 01:37:17;;;;;;;0.77;0.40;;;;;;;20.27;28.73;96087.00;5136454;27;20030;-65
2022/01/15 01:39:46;;;;;;;;;;;;;;;20.23;29.14;96088.59;5138032;27;20034;-64
2022/01/15 01:42:31;;;;;;;1.45;0.30;;;;;;;20.27;28.83;96084.31;5131964;27;19942;-65
2022/01/15 01:45:13;;;;;;;1.00;0.28;;;;;;;20.27;29.06;96092.34;5133526;27;20026;-64
2022/01/15 01:47:43;;;;;;;0.65;0.13;;;;;;;20.28;28.94;96095.84;5130065;27;20027;-65
2022/01/15 01:50:22;;;;;;;0.40;0.20;;;;;;;20.30;29.34;96099.06;5130144;27;20027;-65
2022/01/15 01:52:52;;;;;;;0.50;0.30;;;;;;;20.30;29.15;96104.44;5133461;27;20023;-65
2022/01/15 01:55:19;;;;;;;0.55;0.13;;;;;;;20.30;29.06;96104.44;5130052;27;20019;-65
2022/01/15 01:57:45;;;;;;;0.47;0.28;;;;;;;20.31;28.98;96095.31;5134326;27;20086;-66
2022/01/15 02:00:13;;;;;;;0.57;0.22;;;;;;;20.33;29.14;96101.22;5133559;27;20034;-65
2022/01/15 02:02:39;;;;;;;0.30;0.10;;;;;;;20.33;29.15;96111.13;5129886;27;20102;-65
2022/01/15 02:05:05;;;;;;;0.85;0.40;;;;;;;20.33;29.08;96103.91;5129476;28;20252;-65
2022/01/15 02:07:31;;;;;;;1.33;0.50;;;;;;;20.34;29.36;96112.75;5145956;27;20257;-65
2022/01/15 02:09:58;;;;;;;1.48;0.30;;;;;;;20.34;29.28;96110.06;5131896;27;20034;-65
2022/01/15 02:12:24;;;;;;;2.35;0.30;;;;;;;20.34;29.22;96112.75;5149931;27;20038;-65
2022/01/15 02:14:50;;;;;;;0.80;0.40;;;;;;;20.34;29.49;96105.50;5149077;27;20049;-65
2022/01/15 02:17:18;;;;;;;1.38;0.30;;;;;;;20.35;28.89;96115.19;5143520;27;20023;-65
2022/01/15 02:19:58;;;;;;;0.20;0.20;;;;;;;20.35;29.12;96114.34;5129181;28;20015;-65
2022/01/15 02:25:08;;;;;;;1.25;1.05;;;;;;;20.35;29.19;96114.34;5129137;28;20026;-65
2022/01/15 02:27:33;;;;;;;0.10;0.10;;;;;;;20.36;29.23;96116.78;5128805;28;20099;-65
2022/01/15 02:30:03;;;;;;;1.40;0.30;;;;;;;20.35;29.12;96115.19;5128772;28;20039;-64
2022/01/15 02:32:32;;;;;;;0.20;0.10;;;;;;;20.38;29.16;96120.00;5128891;28;20015;-65
2022/01/15 02:34:59;;;;;;;0.40;0.10;;;;;;;20.38;29.05;96116.50;5128900;28;20061;-65
2022/01/15 02:37:24;;;;;;;0.80;0.20;;;;;;;20.36;29.03;96116.78;5129108;28;20039;-65
2022/01/15 02:39:50;;;;;;;0.38;0.20;;;;;;;20.38;29.10;96119.19;5128857;28;20262;-65
2022/01/15 02:42:15;;;;;;;0.40;0.30;;;;;;;20.39;29.27;96118.91;5128801;28;20027;-65
2022/01/15 02:44:43;;;;;;;0.70;0.30;;;;;;;20.39;29.15;96116.22;5128676;28;20072;-63
2022/01/15 02:49:35;;;;;;;0.30;0.30;;;;;;;20.39;28.98;96116.22;5128540;28;20065;-65
2022/01/15 02:52:00;;;;;;;1.10;0.30;;;;;;;20.40;29.17;96120.53;5128536;28;20244;-65
2022/01/15 02:54:26;;;;;;;0.45;0.25;;;;;;;20.41;29.19;96124.03;5128637;28;20030;-64
2022/01/15 02:56:52;;;;;;;1.17;0.55;;;;;;;20.39;29.32;96132.34;5128466;28;20143;-65
2022/01/15 02:59:23;;;;;;;0.32;0.20;;;;;;;20.41;28.98;96132.88;5142214;27;20051;-64
2022/01/15 03:01:49;;;;;;;;;;;;;;;20.35;29.21;96125.91;5149326;27;20091;-64
2022/01/15 03:04:18;;;;;;;0.60;0.20;;;;;;;20.37;29.10;96142.53;5148997;27;19896;-65
2022/01/15 03:06:44;;;;;;;0.45;0.20;;;;;;;20.38;29.27;96144.16;5148900;27;20019;-64
2022/01/15 03:09:10;;;;;;;3.00;0.30;;;;;;;20.39;29.24;96137.72;5148832;27;20027;-64
2022/01/15 03:11:35;;;;;;;0.70;0.22;;;;;;;20.39;29.17;96137.72;5149188;27;20092;-64
2022/01/15 03:14:01;;;;;;;0.75;0.22;;;;;;;20.39;29.02;96142.28;5148761;27;20243;-64
2022/01/15 03:16:27;;;;;;;0.25;0.15;;;;;;;20.42;29.23;96147.13;5148635;27;20015;-64
2022/01/15 03:18:53;;;;;;;0.35;0.20;;;;;;;20.42;29.37;96147.94;5148712;27;20097;-64
2022/01/15 03:21:18;;;;;;;0.43;0.13;;;;;;;20.40;29.07;96144.69;5148733;27;20280;-64
2022/01/15 03:23:44;;;;;;;0.80;0.30;;;;;;;20.41;29.26;96148.19;5149069;27;20031;-64
2022/01/15 03:26:11;;;;;;;1.00;0.28;;;;;;;20.41;29.25;96145.53;5148522;27;20035;-65
2022/01/15 03:28:38;;;;;;;0.30;0.13;;;;;;;20.42;29.26;96147.94;5148462;27;20030;-64
2022/01/15 03:31:03;;;;;;;0.55;0.20;;;;;;;20.45;29.39;96167.25;5148480;28;20094;-64
2022/01/15 03:33:29;;;;;;;0.95;0.35;;;;;;;20.42;29.18;96155.97;5148886;27;20083;-65
2022/01/15 03:35:55;;;;;;;0.98;0.30;;;;;;;20.43;29.33;96160.28;5148610;28;20212;-65
2022/01/15 03:38:20;;;;;;;0.05;0.03;;;;;;;20.44;29.25;96166.44;5148461;27;20052;-66
2022/01/15 03:40:46;;;;;;;1.17;0.10;;;;;;;20.44;29.45;96166.44;5148595;28;20125;-65
2022/01/15 03:43:12;;;;;;;1.30;0.20;;;;;;;20.45;29.29;96161.91;5148413;27;20087;-64
2022/01/15 03:45:38;;;;;;;0.60;0.20;;;;;;;20.43;29.26;96171.03;5148553;28;20026;-64
2022/01/15 03:48:04;;;;;;;0.70;0.20;;;;;;;20.42;29.38;96164.03;5148499;27;20091;-64
2022/01/15 03:50:29;;;;;;;0.30;0.20;;;;;;;20.43;29.42;96162.97;5148475;28;20027;-65
2022/01/15 03:52:55;;;;;;;1.08;0.43;;;;;;;20.44;29.50;96171.81;5148443;27;20459;-65
2022/01/15 03:55:21;;;;;;;0.10;0.10;;;;;;;20.45;29.45;96168.06;5148696;28;20038;-65
2022/01/15 03:57:47;;;;;;;0.20;0.20;;;;;;;20.43;29.37;96175.59;5148306;27;20212;-65
2022/01/15 04:00:17;;;;;;;0.90;0.30;;;;;;;20.44;29.20;96177.19;5148327;28;20263;-65
2022/01/15 04:02:44;;;;;;;0.28;0.17;;;;;;;20.42;29.26;96182.84;5148273;27;20023;-65
2022/01/15 04:05:11;;;;;;;0.13;0.10;;;;;;;20.41;29.26;96178.53;5148375;28;20129;-65
2022/01/15 04:07:37;;;;;;;0.68;0.20;;;;;;;20.41;29.31;96191.16;5148254;27;20122;-65
2022/01/15 04:10:05;;;;;;;0.32;0.13;;;;;;;20.41;29.25;96183.09;5148257;28;20054;-65
2022/01/15 04:12:30;;;;;;;0.85;0.20;;;;;;;20.41;29.28;96183.91;5148221;27;20030;-65
2022/01/15 04:14:56;;;;;;;0.68;0.30;;;;;;;20.41;29.51;96191.16;5148280;28;20023;-65
2022/01/15 04:17:21;;;;;;;0.82;0.25;;;;;;;20.42;29.26;96179.34;5148044;27;20030;-64
2022/01/15 04:19:47;;;;;;;0.35;0.20;;;;;;;20.40;29.18;96195.72;5148276;28;20125;-64
2022/01/15 04:22:12;;;;;;;0.38;0.10;;;;;;;20.41;29.01;96200.00;5148174;27;20023;-64
2022/01/15 04:24:38;;;;;;;0.38;0.38;;;;;;;20.39;29.21;96202.16;5148191;28;20023;-64
2022/01/15 04:27:04;;;;;;;0.47;0.20;;;;;;;20.39;28.96;96207.53;5147889;27;20022;-65
2022/01/15 04:29:32;;;;;;;0.43;0.20;;;;;;;20.39;29.20;96212.91;5147908;28;20267;-66
2022/01/15 04:31:58;;;;;;;0.17;0.10;;;;;;;20.39;29.06;96212.09;5148622;27;20015;-66
2022/01/15 04:34:26;;;;;;;0.70;0.30;;;;;;;20.41;29.27;96218.00;5148155;28;20128;-65
2022/01/15 04:36:56;;;;;;;0.28;0.15;;;;;;;20.40;29.05;96224.47;5148336;27;20015;-66
2022/01/15 04:39:21;;;;;;;0.43;0.10;;;;;;;20.38;28.94;96230.06;5151867;27;20030;-65
2022/01/15 04:41:47;;;;;;;0.77;0.30;;;;;;;20.37;29.02;96224.97;5151804;27;20019;-65
2022/01/15 04:44:13;;;;;;;0.50;0.20;;;;;;;20.37;29.13;96224.97;5151718;27;20087;-65
2022/01/15 04:46:39;;;;;;;0.35;0.10;;;;;;;20.37;28.96;96241.09;5151616;27;20018;-65
2022/01/15 04:49:06;;;;;;;0.30;0.20;;;;;;;20.35;29.02;96240.53;5151559;27;20195;-65
2022/01/15 04:51:32;;;;;;;0.10;0.10;;;;;;;20.35;29.01;96251.28;5151630;27;20079;-65
2022/01/15 04:53:58;;;;;;;1.08;0.20;;;;;;;20.35;29.16;96244.06;5151480;27;20144;-65
2022/01/15 04:56:23;;;;;;;0.75;0.20;;;;;;;20.35;29.13;96249.41;5133484;27;20060;-64
2022/01/15 04:58:50;;;;;;;0.13;0.13;;;;;;;20.34;29.19;96242.44;5151637;27;20215;-64
2022/01/15 05:01:15;;;;;;;0.80;0.22;;;;;;;20.35;28.97;96244.06;5151352;27;20023;-64
2022/01/15 05:03:41;;;;;;;0.22;0.22;;;;;;;20.35;28.90;96262.03;5151266;27;20091;-64
2022/01/15 05:06:06;;;;;;;0.55;0.20;;;;;;;20.33;29.05;96256.09;5151438;27;20026;-64
2022/01/15 05:08:32;;;;;;;2.05;0.22;;;;;;;20.34;29.00;96263.09;5151200;27;20268;-64
2022/01/15 05:11:00;;;;;;;0.60;0.30;;;;;;;20.34;29.15;96263.91;5151131;27;20213;-65
2022/01/15 05:13:30;;;;;;;0.45;0.10;;;;;;;20.37;28.97;96281.38;5151053;27;20033;-64
2022/01/15 05:15:55;;;;;;;1.08;0.30;;;;;;;20.35;29.08;96287.00;5151006;27;20191;-65
2022/01/15 05:18:21;;;;;;;0.45;0.20;;;;;;;20.35;29.12;96291.56;5150984;27;20030;-65
2022/01/15 05:20:47;;;;;;;0.80;0.20;;;;;;;20.34;29.02;96290.75;5151032;27;20031;-65
2022/01/15 05:23:13;;;;;;;1.05;0.17;;;;;;;20.35;29.12;96287.00;5151202;27;20027;-65
2022/01/15 05:25:39;;;;;;;0.40;0.10;;;;;;;20.35;28.96;96303.13;5150867;27;20015;-65
2022/01/15 05:28:07;;;;;;;1.30;0.30;;;;;;;20.34;29.27;96304.19;5150697;27;20060;-64
2022/01/15 05:30:33;;;;;;;0.13;0.10;;;;;;;20.36;29.22;96310.09;5150614;27;20206;-64
2022/01/15 05:32:59;;;;;;;0.80;0.30;;;;;;;20.35;29.23;96311.19;5150785;27;20085;-65
2022/01/15 05:35:28;;;;;;;0.38;0.20;;;;;;;20.37;29.28;96321.63;5150734;27;20087;-64
2022/01/15 05:37:55;;;;;;;0.85;0.35;;;;;;;20.36;29.22;96323.53;5150586;27;20071;-65
2022/01/15 05:40:21;;;;;;;0.50;0.20;;;;;;;20.37;29.23;96343.13;5150562;27;20027;-65
2022/01/15 05:42:47;;;;;;;0.85;0.20;;;;;;;20.36;29.15;96339.66;5150534;27;20059;-65
2022/01/15 05:45:14;;;;;;;0.43;0.20;;;;;;;20.35;29.09;96343.41;5150649;27;20254;-65
2022/01/15 05:47:40;;;;;;;0.20;0.20;;;;;;;20.35;28.75;96347.94;5150750;27;20169;-64
2022/01/15 05:50:06;;;;;;;0.80;0.20;;;;;;;20.35;29.02;96351.44;5150418;27;20030;-65
2022/01/15 05:52:31;;;;;;;0.17;0.10;;;;;;;20.35;28.91;96358.69;5150263;27;20034;-64
2022/01/15 05:54:57;;;;;;;0.63;0.25;;;;;;;20.34;29.13;96367.81;5150218;27;20022;-64
2022/01/15 05:57:23;;;;;;;0.38;0.13;;;;;;;20.32;29.34;96357.34;5150213;27;20046;-66
2022/01/15 05:59:51;;;;;;;0.65;0.20;;;;;;;20.33;28.98;96363.50;5150202;27;20319;-64
2022/01/15 06:02:17;;;;;;;0.38;0.20;;;;;;;20.34;28.96;96370.50;5150177;27;20031;-64
2022/01/15 06:04:43;;;;;;;0.77;0.40;;;;;;;20.36;29.17;96379.91;5150125;27;20088;-64
2022/01/15 06:07:09;;;;;;;0.13;0.10;;;;;;;20.36;29.08;96374.56;5150016;27;20027;-63
2022/01/15 06:09:34;;;;;;;0.30;0.30;;;;;;;20.38;28.96;96391.19;5149865;27;20168;-64
2022/01/15 06:12:01;;;;;;;1.15;0.32;;;;;;;20.38;28.82;96396.56;5149916;27;20144;-64
2022/01/15 06:14:27;;;;;;;0.60;0.30;;;;;;;20.39;28.87;96400.84;5149657;27;20067;-64
2022/01/15 06:16:53;;;;;;;0.95;0.32;;;;;;;20.39;28.91;96400.84;5149870;27;20054;-66
2022/01/15 06:19:19;;;;;;;0.98;0.40;;;;;;;20.39;28.70;96411.59;5149791;27;20026;-65
2022/01/15 06:21:44;;;;;;;3.22;0.20;;;;;;;20.42;28.97;96424.50;5149851;27;20086;-66
2022/01/15 06:24:10;;;;;;;0.20;0.10;;;;;;;20.40;29.02;96423.94;5150096;27;20256;-65
2022/01/15 06:26:35;;;;;;;1.20;0.17;;;;;;;20.39;28.70;96426.91;5149692;27;20023;-66
2022/01/15 06:29:01;;;;;;;0.40;0.20;;;;;;;20.40;29.05;96425.84;5149336;27;20110;-65
2022/01/15 06:31:28;;;;;;;0.75;0.43;;;;;;;20.39;28.66;96433.06;5149593;27;20133;-65
2022/01/15 06:33:53;;;;;;;0.25;0.10;;;;;;;20.39;29.00;96426.91;5149605;27;20323;-64
2022/01/15 06:36:19;;;;;;;1.15;0.45;;;;;;;20.39;28.77;96440.34;5149584;27;20097;-66
2022/01/15 06:38:44;;;;;;;0.60;0.30;;;;;;;20.39;28.75;96445.72;5149470;27;20023;-66
2022/01/15 06:41:10;;;;;;;0.35;0.22;;;;;;;20.40;28.96;96450.00;5149537;27;20015;-66
2022/01/15 06:43:36;;;;;;;0.45;0.25;;;;;;;20.40;28.98;96450.81;5149276;27;20061;-65
2022/01/15 06:46:01;;;;;;;0.75;0.22;;;;;;;20.40;28.81;96445.44;5131052;27;20023;-63
2022/01/15 06:48:28;;;;;;;0.77;0.30;;;;;;;20.43;28.78;96460.25;5148758;27;20046;-66
2022/01/15 06:50:54;;;;;;;1.23;0.30;;;;;;;20.44;28.88;96456.47;5148702;27;20191;-64
2022/01/15 06:53:20;;;;;;;1.08;0.40;;;;;;;20.43;28.84;96461.03;5148900;27;20079;-64
2022/01/15 06:55:49;;;;;;;0.28;0.20;;;;;;;20.45;28.72;96476.88;5149052;27;20050;-64
2022/01/15 06:58:15;;;;;;;0.60;0.20;;;;;;;20.45;28.87;96478.75;5148664;27;20141;-66
2022/01/15 07:00:41;;;;;;;0.65;0.25;;;;;;;20.46;28.72;96475.00;5148112;27;20015;-64
2022/01/15 07:03:07;;;;;;;3.83;0.40;;;;;;;20.47;28.79;96490.84;5148486;27;20022;-64
2022/01/15 07:05:32;;;;;;;0.65;0.30;;;;;;;20.48;28.63;96499.72;5148546;27;20042;-63
2022/01/15 07:07:58;;;;;;;0.65;0.40;;;;;;;20.49;28.80;96495.97;5148418;27;20030;-66
2022/01/15 07:10:24;;;;;;;0.45;0.20;;;;;;;20.50;28.57;96494.91;5148543;27;20046;-63
2022/01/15 07:12:50;;;;;;;1.55;0.20;;;;;;;20.52;28.77;96498.13;5147409;27;20101;-65
2022/01/15 07:15:16;;;;;;;0.43;0.30;;;;;;;20.54;28.89;96504.06;5129288;27;20031;-64
2022/01/15 07:17:43;;;;;;;1.17;0.52;;;;;;;20.53;28.79;96510.50;5136185;27;20020;-64
2022/01/15 07:20:10;;;;;;;5.65;0.68;;;;;;;20.51;29.16;96515.34;5127646;28;20023;-69
2022/01/15 07:22:35;;;;;;;1.67;0.22;;;;;;;20.47;29.23;96522.28;5127307;28;20099;-67
2022/01/15 07:25:01;;;;;;;3.55;0.30;;;;;;;20.41;29.60;96500.75;5127586;28;20023;-74
2022/01/15 07:27:27;;;;;;;6.50;0.43;;;;;;;20.43;29.66;96520.13;5146225;27;20019;-67
2022/01/15 07:29:52;;;;;;;4.28;1.20;;;;;;;20.41;29.79;96527.63;5147940;27;20067;-65
2022/01/15 07:32:18;;;;;;;5.85;0.70;;;;;;;20.38;29.58;96530.00;5147862;27;20033;-64
2022/01/15 07:34:44;;;;;;;1.00;0.35;;;;;;;20.35;29.59;96534.03;5147853;28;20038;-66
2022/01/15 07:37:09;;;;;;;0.98;0.43;;;;;;;20.35;29.69;96528.66;5148188;27;20027;-65
2022/01/15 07:39:36;;;;;;;2.63;0.90;;;;;;;20.34;29.61;96537.78;5148399;27;20048;-64
2022/01/15 07:42:01;;;;;;;2.15;0.68;;;;;;;20.33;29.92;96541.53;5147820;27;20287;-64
2022/01/15 07:44:27;;;;;;;2.17;0.22;;;;;;;20.31;29.50;96542.84;5148290;28;20034;-64
2022/01/15 07:46:54;;;;;;;2.63;0.68;;;;;;;20.25;29.63;96548.19;5148428;28;20256;-63
2022/01/15 07:49:20;;;;;;;7.03;1.05;;;;;;;20.24;29.43;96549.25;5148301;28;20026;-63
2022/01/15 07:51:46;;;;;;;4.82;1.27;;;;;;;20.22;29.35;96561.31;5148297;28;20050;-63
2022/01/15 07:54:11;;;;;;;3.80;1.20;;;;;;;20.18;29.46;96554.84;5148378;28;20023;-63
2022/01/15 07:56:37;;;;;;;3.20;1.27;;;;;;;20.15;29.25;96560.72;5148457;28;20184;-64
2022/01/15 07:59:03;;;;;;;2.25;1.00;;;;;;;20.13;29.25;96567.16;5148161;28;20027;-64
2022/01/15 08:01:28;;;;;;;4.25;1.20;;;;;;;20.11;29.45;96571.94;5148430;28;20019;-63
2022/01/15 08:03:54;;;;;;;5.00;1.40;;;;;;;20.11;29.54;96576.53;5148127;28;20035;-64
2022/01/15 08:06:19;;;;;;;6.35;1.50;;;;;;;20.10;29.39;96581.06;5147904;27;20023;-65
2022/01/15 08:08:45;;;;;;;3.58;1.60;;;;;;;20.11;29.43;96585.38;5148092;27;20088;-63
2022/01/15 08:11:10;;;;;;;3.22;1.75;;;;;;;20.13;29.48;96596.66;5148205;27;20026;-61
2022/01/15 08:13:36;;;;;;;3.97;1.55;;;;;;;20.12;29.40;96592.38;5151429;27;20094;-60
2022/01/15 08:16:02;;;;;;;3.55;1.73;;;;;;;20.12;29.81;96596.94;5151913;27;20204;-62
2022/01/15 08:18:28;;;;;;;5.43;1.50;;;;;;;20.12;29.67;96600.41;5151739;27;20026;-63
2022/01/15 08:20:54;;;;;;;3.50;1.55;;;;;;;20.14;29.61;96608.22;5152078;27;20017;-63
2022/01/15 08:23:20;;;;;;;5.00;2.15;;;;;;;20.15;29.92;96606.34;5151790;27;20019;-62
2022/01/15 08:25:46;;;;;;;6.30;2.10;;;;;;;20.15;30.15;96617.09;5152011;27;20019;-62
2022/01/15 08:28:11;;;;;;;6.47;1.92;;;;;;;20.15;29.93;96615.19;5151682;27;20019;-62
2022/01/15 08:30:37;;;;;;;4.70;1.77;;;;;;;20.15;30.32;96617.09;5151739;27;20057;-63
2022/01/15 08:33:02;;;;;;;3.55;1.52;;;;;;;20.15;30.15;96625.13;5150874;27;20035;-60
2022/01/15 08:35:28;;;;;;;3.85;1.65;;;;;;;20.13;30.05;96625.41;5131403;28;20030;-62
2022/01/15 08:37:58;;;;;;;4.07;1.27;;;;;;;20.14;30.17;96632.38;5139065;27;20026;-62
2022/01/15 08:40:24;;;;;;;3.03;1.00;;;;;;;20.12;30.12;96632.63;5151995;27;20224;-62
2022/01/15 08:42:50;;;;;;;3.72;1.30;;;;;;;20.12;29.94;96640.69;5154860;27;20235;-63
2022/01/15 08:45:16;;;;;;;3.38;1.15;;;;;;;20.11;30.21;96641.75;5151649;27;20015;-64
2022/01/15 08:47:42;;;;;;;5.72;1.63;;;;;;;20.15;30.31;96635.88;5136329;27;20025;-61
2022/01/15 08:50:11;;;;;;;2.80;0.90;;;;;;;20.16;30.38;96653.59;5151500;27;20136;-65
2022/01/15 08:52:38;;;;;;;3.47;1.00;;;;;;;20.15;30.33;96650.09;5151141;27;20026;-63
2022/01/15 08:55:05;;;;;;;2.83;1.20;;;;;;;20.15;30.44;96652.78;5152780;27;20026;-63
2022/01/15 08:57:30;;;;;;;4.32;1.15;;;;;;;20.16;30.48;96664.34;5149505;27;20018;-64
2022/01/15 08:59:56;;;;;;;6.45;0.90;;;;;;;20.09;29.91;96661.84;5151331;27;20011;-62
2022/01/15 09:12:23;;;;;;;2.30;0.85;;;;;;;19.98;29.08;96679.72;5141060;27;20076;-63
2022/01/15 09:14:52;;;;;;;3.00;0.70;;;;;;;20.01;28.63;96700.69;5151154;27;20276;-64
2022/01/15 09:17:19;;;;;;;0.88;0.47;;;;;;;20.04;28.37;96688.63;5150838;27;20272;-63
2022/01/15 09:19:45;;;;;;;1.75;1.08;;;;;;;20.02;28.42;96699.63;5151086;27;20030;-64
2022/01/15 09:22:11;;;;;;;1.25;0.73;;;;;;;20.00;28.26;96709.00;5150989;27;20034;-64
2022/01/15 09:24:38;;;;;;;2.92;0.80;;;;;;;20.00;28.10;96699.06;5150582;27;20015;-63
2022/01/15 09:30:12;;;;;;;2.90;0.90;;;;;;;19.98;28.16;96706.56;5150951;27;20027;-64
2022/01/15 09:32:35;;;;;;;1.40;0.63;;;;;;;19.93;28.01;96710.00;5150706;27;20269;-63
2022/01/15 09:35:01;;;;;;;1.42;0.70;;;;;;;19.92;28.34;96721.00;5150838;27;20023;-63
2022/01/15 09:37:27;;;;;;;2.65;0.82;;;;;;;19.89;28.06;96716.91;5150687;27;20050;-63
2022/01/15 09:39:53;;;;;;;5.30;1.30;;;;;;;19.91;28.33;96722.06;5150706;27;20201;-63
2022/01/15 09:42:21;;;;;;;3.33;1.00;;;;;;;19.91;28.24;96719.38;5150542;27;20018;-64
2022/01/15 09:44:48;;;;;;;1.90;1.00;;;;;;;19.93;28.14;96727.94;5150475;27;20023;-63
2022/01/15 09:47:15;;;;;;;5.80;1.13;;;;;;;19.94;28.17;96722.34;5150490;27;20023;-63
2022/01/15 09:49:43;;;;;;;1.63;0.90;;;;;;;19.96;27.94;96730.16;5150409;27;20292;-63
2022/01/15 09:52:10;;;;;;;3.15;1.17;;;;;;;19.93;28.08;96746.75;5150373;27;20097;-63
2022/01/15 09:54:37;;;;;;;1.88;0.90;;;;;;;19.96;27.79;96740.88;5150073;27;20023;-63
2022/01/15 09:57:03;;;;;;;3.53;1.00;;;;;;;19.96;27.39;96740.88;5150023;27;20035;-63
2022/01/15 09:59:28;;;;;;;2.33;1.05;;;;;;;19.95;27.45;96741.94;5149919;27;20094;-63
2022/01/15 10:01:54;;;;;;;2.08;0.98;;;;;;;19.93;27.63;96760.97;5150011;27;20283;-63
2022/01/15 10:04:19;;;;;;;2.13;1.00;;;;;;;19.90;27.67;96755.31;5150088;27;20061;-63
2022/01/15 10:07:07;;;;;;;1.63;0.70;;;;;;;19.89;27.58;96767.09;5150010;27;20019;-63
2022/01/15 10:09:33;;;;;;;2.55;1.25;;;;;;;19.87;27.68;96764.66;5150030;27;20031;-63
2022/01/15 10:11:59;;;;;;;1.35;0.90;;;;;;;19.86;27.69;96778.28;5149989;27;20034;-63
2022/01/15 10:14:29;;;;;;;2.10;0.85;;;;;;;19.81;27.85;96787.91;5149796;27;20224;-63
2022/01/15 10:16:57;;;;;;;3.45;0.77;;;;;;;19.81;27.79;96798.63;5149820;27;20027;-63
2022/01/15 10:19:35;;;;;;;2.30;0.70;;;;;;;19.81;27.65;96789.78;5149951;27;20035;-63
2022/01/15 10:22:05;;;;;;;2.25;0.80;;;;;;;19.82;27.60;96786.84;5149849;27;20270;-64
2022/01/15 10:24:32;;;;;;;2.80;0.55;;;;;;;19.82;27.39;96802.94;5149892;27;20050;-64
2022/01/15 10:27:17;;;;;;;0.60;0.50;;;;;;;19.82;27.44;96805.63;5149650;27;20015;-64
2022/01/15 10:29:42;;;;;;;1.58;0.82;;;;;;;19.81;27.18;96800.50;5148979;27;20264;-63
2022/01/15 10:32:13;;;;;;;1.20;0.70;;;;;;;19.82;27.34;96810.97;5149620;27;20023;-64
2022/01/15 10:34:42;;;;;;;1.50;0.90;;;;;;;19.82;27.19;96800.25;5148640;27;20022;-63
2022/01/15 10:37:23;;;;;;;2.65;0.85;;;;;;;19.83;27.34;96807.25;5149515;27;20094;-63
2022/01/15 10:40:07;;;;;;;2.28;0.57;;;;;;;19.81;27.17;96820.09;5149353;27;20084;-63
2022/01/15 10:42:34;;;;;;;0.50;0.40;;;;;;;19.83;27.12;96812.59;5149158;27;20031;-63
2022/01/15 10:45:08;;;;;;;1.05;0.60;;;;;;;19.80;26.94;96821.16;5149457;27;20284;-62
2022/01/15 10:47:49;;;;;;;1.13;0.65;;;;;;;19.77;26.90;96835.09;5149347;27;20182;-63
2022/01/15 10:50:32;;;;;;;1.40;0.60;;;;;;;19.71;27.02;96833.38;5149329;27;20015;-63
2022/01/15 10:53:04;;;;;;;1.25;0.60;;;;;;;19.70;27.12;96855.88;5149332;27;20232;-63
2022/01/15 10:55:32;;;;;;;1.17;0.73;;;;;;;19.65;26.98;96845.06;5149067;27;20079;-65
2022/01/15 10:58:01;;;;;;;2.72;0.80;;;;;;;19.63;26.99;96855.25;5149086;27;20191;-64
2022/01/15 11:00:38;;;;;;;3.88;0.80;;;;;;;19.59;27.06;96875.56;5149058;27;20023;-64
2022/01/15 11:03:09;;;;;;;0.82;0.50;;;;;;;19.57;27.04;96867.75;5149080;27;20094;-64
2022/01/15 11:05:35;;;;;;;;;;;;;;;19.49;27.38;96865.50;5149558;27;20031;-65
2022/01/15 11:08:03;;;;;;;0.98;0.55;;;;;;;19.50;27.09;96886.69;5149046;27;19952;-63
2022/01/15 11:10:36;;;;;;;2.58;0.50;;;;;;;19.52;27.57;96881.91;5148855;27;20027;-65
2022/01/15 11:13:06;;;;;;;3.63;1.20;;;;;;;19.55;28.08;96879.78;5148887;27;20090;-65
2022/01/15 11:15:32;;;;;;;7.07;1.17;;;;;;;19.58;27.96;96885.47;5148923;27;20031;-65
2022/01/15 11:17:59;;;;;;;9.38;1.60;;;;;;;19.58;28.39;96879.31;5149130;27;20027;-65
2022/01/15 11:20:30;;;;;;;4.65;1.30;;;;;;;19.57;28.04;96893.78;5148980;27;20019;-65
2022/01/15 11:22:56;;;;;;;6.75;1.10;;;;;;;19.56;28.17;96897.50;5148839;27;20035;-65
2022/01/15 11:25:22;;;;;;;8.25;1.27;;;;;;;19.52;28.13;96895.31;5148827;27;20121;-64
2022/01/15 11:27:49;;;;;;;5.18;1.55;;;;;;;19.54;28.46;96897.78;5148709;27;20026;-64
2022/01/15 11:30:14;;;;;;;5.40;1.17;;;;;;;19.51;28.66;96908.97;5148560;27;20035;-64
2022/01/15 11:32:43;;;;;;;4.38;0.90;;;;;;;19.49;28.61;96908.41;5148658;27;20071;-64
2022/01/15 11:35:09;;;;;;;3.95;1.20;;;;;;;19.47;28.34;96926.59;5148739;28;20140;-64
2022/01/15 11:37:47;;;;;;;4.57;1.33;;;;;;;19.46;28.17;96935.69;5148928;27;20026;-64
2022/01/15 11:40:43;;;;;;;5.95;1.25;;;;;;;19.47;28.35;96932.78;5148628;28;20082;-64
2022/01/15 11:43:24;;;;;;;1.42;0.75;;;;;;;19.45;28.25;96948.31;5148606;27;20034;-64
2022/01/15 11:45:53;;;;;;;1.98;0.80;;;;;;;19.43;27.70;96952.25;5148833;27;20136;-64
2022/01/15 11:48:22;;;;;;;4.13;1.13;;;;;;;19.42;27.93;96959.50;5152814;27;20054;-64
2022/01/15 11:51:17;;;;;;;2.42;1.08;;;;;;;19.39;27.68;96962.66;5152677;27;20023;-64
2022/01/15 11:53:47;;;;;;;4.75;0.88;;;;;;;19.36;27.81;96974.69;5152962;27;20046;-65
2022/01/15 11:56:17;;;;;;;1.52;0.65;;;;;;;19.38;27.56;96981.69;5152728;27;20031;-64
2022/01/15 11:58:43;;;;;;;2.42;0.80;;;;;;;19.36;27.72;96973.88;5152669;27;20030;-64
2022/01/15 12:01:38;;;;;;;2.97;0.75;;;;;;;19.34;27.55;96994.75;5152705;27;20030;-64
2022/01/15 12:04:26;;;;;;;1.90;0.77;;;;;;;19.33;27.62;96993.13;5134490;27;20035;-65
2022/01/15 12:07:09;;;;;;;2.75;0.90;;;;;;;19.33;27.74;97017.28;5152418;27;20038;-64